Gallatin, Tennessee
Current Conditions -  °F | °C
As of 10:53 PM on Sunday 19 Oct 2014 (Local Time) from KBNA Reporting Station
Broken Clouds Broken Clouds  
Wind Chill: 50°   Ceiling: 20000
Heat Index: 50°   Visibility: 10mi
Dew Point: 48°   Wind: 3mph
Humidity: 93%   Direction: 170°S
Pressure: 30.1"   Gusts: NA
Location:  36.39°N, 86.45°W
Report Text: KBNA 200353Z 17003KT 10SM BKN200 10/09 A3010 RMK AO2 SLP192 T01000089
Loading
Personal Weather Stations






























Interactive Weather Map New forecast layout! Learn more

10-Day Weather Forecast

Advertisements
Track Severe Weather on mobile